OITK  Khoy  Airport

Khoy, Iran

Add Bookmark
ICAO OITK
IATA KHY
Type Airport
Status Operational
Latitude
38° 25' 39" N
38.427502
Longitude
44° 58' 24" E
44.973598
Local (GMT +3.5 ) UTC
Dec 7, 2016 05:53 pm Dec 7, 2016 14:23
Sunrise-Sunset Local UTC
Begin Civil Twilight 07:03 am 03:33
Sunrise 07:32 am 04:02
Sunset 05:10 pm 13:40
End Civil Twilight 05:40 pm 14:10
VFR
VFR
MVFR
MVFR
IFR
IFR
LIFR
LIFR
Unknown
No Data

Current Weather

METAR Observed VFR
OITK 071100Z 00000KT CAVOK 03/M05 Q1020 Wed, Dec 7, 2016 @ 11:00 UTC
(3 Hours, 23 Minutes ago)
Visual Flight Rules
Wind Visibility Conditions
Calm 10 km or more
  • No significant weather
Temperatures Readings Precipitation
Current Temp
3°C
37°F
Dewpoint
-5°C
23°F
Humidity 56%
Altimeter 30.12" Hg
Sea Level Pressure 1,020 mb
Field Elevation
1,107 m
3,632 ft
None Recorded
-
-

CheckWX.com is intended as a tool to help pilots better visualize weather data. It is not intended as a substitute for an official weather briefing obtained from a Flight Service Station. CheckWX.com does not meet the FAA requirements for an official pre-flight weather briefing. Therefore, it's important that pilots still call and obtain an official FSS pre-flight weather briefing.

© 2007-2016 CheckWX.com
14:23:42 UTC